In Rescue
 
Open Full Screen Window  High Contrast Mode
Wind Gusting 00 knots
08
November 29, 2022 10:23 AM EST
Weather Information
Wind Direction
  140 °
Wind Speed
  08 kt (9 mph)
Wind Gust
  00 kt (0 mph)
Altimeter
29.92 in
Visibility
7 SM
Temperature
06° C
43° F
Dewpoint
03° C
37° F
Humidity
81%
1hr Rain Fall
00.00 in.
24hr Rain Fall
00.00 in.
Sky Condition
Overcast @ 2,400 ft
MVFR

METAR KFPK 291523Z AUTO 14008KT 7SM OVC024 06/03 A2992 RMK AO2 T00600032

FAA Disclaimer: The data displayed is for advisory purposes only and is not to be used for flight planning or operations.